Terminal Aerodrome Forecast
Issued by NWS

Home | Current Version | Previous Version | Graphics & Text | Print | Product List | Glossary On
Versions: 1 2 3 4 5 6 7 8 9 10 11 12 13 14 15 16 17 18 19 20 21 22 23
648
FTUS41 KCLE 302203 AAA
TAFFDY
TAF AMD
KFDY 302203Z 3022/0118 06010G18KT 4SM -RA OVC015
      TEMPO 3022/3024 2SM RA BR OVC008
     FM010000 12008KT 3SM RA BR OVC008
     FM010700 19006KT 3SM -RA BR OVC004
     FM011200 24004KT 6SM BR OVC010=

USA.gov is the U.S. government's official web portal to all federal, state and local government web resources and services.